createdAt,value
2023-01-30T00:01:16.123Z,96534.72
2023-01-30T00:06:18.893Z,96517.41
2023-01-30T00:11:22.254Z,96509.03
2023-01-30T00:16:24.512Z,96516.38
2023-01-30T00:21:26.870Z,96531.44
2023-01-30T00:26:29.016Z,96518.56
2023-01-30T00:31:31.361Z,96523.78
2023-01-30T00:36:33.731Z,96494.03
2023-01-30T00:41:54.301Z,96519.75
2023-01-30T00:47:05.774Z,96488.97
2023-01-30T00:52:09.369Z,96503.09
2023-01-30T00:57:11.575Z,96501.66
2023-01-30T01:02:13.883Z,96470.94
2023-01-30T01:07:16.479Z,96477.84
2023-01-30T01:12:19.034Z,96508.03
2023-01-30T01:17:21.414Z,96508.94
2023-01-30T01:22:24.152Z,96480.44
2023-01-30T01:27:26.603Z,96452.00
2023-01-30T01:32:28.970Z,96457.38
2023-01-30T01:37:31.161Z,96457.31
2023-01-30T01:42:38.211Z,96486.41
2023-01-30T01:47:46.172Z,96441.78
2023-01-30T01:52:52.199Z,96427.28
2023-01-30T01:57:59.478Z,96458.03
2023-01-30T02:03:15.842Z,96428.09
2023-01-30T02:08:27.911Z,96451.88
2023-01-30T02:13:30.789Z,96457.66
2023-01-30T02:18:36.328Z,96424.47
2023-01-30T02:23:56.582Z,96467.22
2023-01-30T02:29:24.773Z,96462.97
2023-01-30T02:34:30.334Z,96442.53
2023-01-30T02:39:54.333Z,96452.09
2023-01-30T02:45:14.410Z,96446.09
2023-01-30T02:50:22.649Z,96421.13
2023-01-30T02:55:28.511Z,96437.56
2023-01-30T03:01:12.094Z,96447.00
2023-01-30T03:06:43.267Z,96423.16
2023-01-30T03:11:54.504Z,96419.97
2023-01-30T03:17:00.132Z,96458.81
2023-01-30T03:22:02.738Z,96398.13
2023-01-30T03:27:12.436Z,96455.00
2023-01-30T03:32:14.838Z,96433.06
2023-01-30T03:37:17.101Z,96421.97
2023-01-30T03:42:19.647Z,96439.88
2023-01-30T03:47:22.840Z,96428.06
2023-01-30T03:52:26.904Z,96441.09
2023-01-30T03:57:29.594Z,96421.53
2023-01-30T04:02:32.128Z,96420.78
2023-01-30T04:07:36.181Z,96399.50
2023-01-30T04:12:38.517Z,96403.03
2023-01-30T04:17:43.871Z,96426.72
2023-01-30T04:23:24.572Z,96418.19
2023-01-30T04:28:27.245Z,96402.91
2023-01-30T04:33:29.919Z,96422.69
2023-01-30T04:38:33.686Z,96451.53
2023-01-30T04:43:36.497Z,96396.03
2023-01-30T04:48:58.126Z,96431.88
2023-01-30T04:54:01.268Z,96414.16
2023-01-30T04:59:03.895Z,96419.69
2023-01-30T05:04:12.107Z,96418.75
2023-01-30T05:09:14.398Z,96410.91
2023-01-30T05:14:16.789Z,96383.78
2023-01-30T05:19:19.092Z,96417.41
2023-01-30T05:24:21.485Z,96408.84
2023-01-30T05:29:23.822Z,96429.09
2023-01-30T05:34:51.165Z,96445.56
2023-01-30T05:39:54.658Z,96426.19
2023-01-30T05:44:57.008Z,96434.06
2023-01-30T05:49:59.444Z,96423.19
2023-01-30T05:55:01.914Z,96421.50
2023-01-30T06:00:08.107Z,96410.16
2023-01-30T06:05:15.028Z,96451.00
2023-01-30T06:10:22.807Z,96408.19
2023-01-30T06:15:25.209Z,96424.84
2023-01-30T06:20:27.407Z,96407.00
2023-01-30T06:25:29.541Z,96418.72
2023-01-30T06:30:31.927Z,96434.13
2023-01-30T06:35:43.110Z,96426.16
2023-01-30T06:40:46.991Z,96405.97
2023-01-30T06:45:49.253Z,96433.22
2023-01-30T06:50:51.926Z,96435.94
2023-01-30T06:55:54.126Z,96414.25
2023-01-30T07:01:02.421Z,96421.31
2023-01-30T07:06:04.932Z,96403.97
2023-01-30T07:11:07.669Z,96413.13
2023-01-30T07:16:29.430Z,96431.13
2023-01-30T07:21:31.770Z,96423.91
2023-01-30T07:26:34.011Z,96392.59
2023-01-30T07:31:36.491Z,96397.75
2023-01-30T07:36:38.739Z,96410.94
2023-01-30T07:41:40.907Z,96400.06
2023-01-30T07:46:45.918Z,96405.41
2023-01-30T07:51:48.257Z,96416.34
2023-01-30T07:56:50.645Z,96412.06
2023-01-30T08:01:52.849Z,96411.44
2023-01-30T08:06:55.028Z,96385.03
2023-01-30T08:11:57.375Z,96383.56
2023-01-30T08:16:59.841Z,96408.53
2023-01-30T08:22:02.091Z,96392.59
2023-01-30T08:27:04.577Z,96391.78
2023-01-30T08:32:06.854Z,96396.94
2023-01-30T08:37:09.387Z,96391.47
2023-01-30T08:42:11.529Z,96368.19
2023-01-30T08:47:13.672Z,96406.31
2023-01-30T08:52:15.918Z,96390.28
2023-01-30T08:57:18.183Z,96357.84
2023-01-30T09:02:20.693Z,96325.13
2023-01-30T09:07:23.062Z,96396.44
2023-01-30T09:12:26.149Z,96382.31
2023-01-30T09:17:28.331Z,96362.59
2023-01-30T09:22:30.547Z,96371.78
2023-01-30T09:27:33.318Z,96360.22
2023-01-30T09:32:37.769Z,96346.69
2023-01-30T09:37:48.005Z,96345.03
2023-01-30T09:43:24.265Z,96337.19
2023-01-30T09:48:42.527Z,96323.91
2023-01-30T09:53:51.133Z,96316.13
2023-01-30T09:58:59.753Z,96307.53
2023-01-30T10:04:10.338Z,96300.25
2023-01-30T10:09:25.531Z,96252.41
2023-01-30T10:14:39.986Z,96280.44
2023-01-30T10:20:06.860Z,96267.88
2023-01-30T10:25:28.197Z,96242.28
2023-01-30T10:30:31.328Z,96231.88
2023-01-30T10:35:37.769Z,96224.38
2023-01-30T10:40:51.921Z,96227.69
2023-01-30T10:46:02.054Z,96206.69
2023-01-30T10:51:11.376Z,96199.63
2023-01-30T10:56:39.335Z,96154.00
2023-01-30T11:01:47.668Z,96164.00
2023-01-30T11:06:50.896Z,96164.53
2023-01-30T11:11:55.901Z,96163.69
2023-01-30T11:16:58.833Z,96160.59
2023-01-30T11:22:04.016Z,96067.41
2023-01-30T11:27:19.536Z,96136.50
2023-01-30T11:32:29.562Z,96100.19
2023-01-30T11:37:34.583Z,96089.94
2023-01-30T11:42:37.723Z,96081.84
2023-01-30T11:47:57.609Z,96082.72
2023-01-30T11:53:07.643Z,96109.09
2023-01-30T11:58:11.310Z,96030.44
2023-01-30T12:03:19.916Z,96086.59
2023-01-30T12:08:40.601Z,96083.66
2023-01-30T12:13:45.788Z,96055.16
2023-01-30T12:19:07.885Z,96067.34
2023-01-30T12:24:39.444Z,96041.28
2023-01-30T12:30:25.156Z,96027.31
2023-01-30T12:35:40.389Z,96057.22
2023-01-30T12:40:48.599Z,96047.25
2023-01-30T12:46:21.671Z,96044.91
2023-01-30T12:51:42.717Z,96039.53
2023-01-30T12:56:54.228Z,96038.53
2023-01-30T13:02:29.680Z,96037.47
2023-01-30T13:08:07.583Z,96034.84
2023-01-30T13:13:41.563Z,96025.91
2023-01-30T13:19:00.155Z,95961.03
2023-01-30T13:24:15.022Z,95962.19
2023-01-30T13:29:31.833Z,95986.88
2023-01-30T13:34:37.207Z,95947.03
2023-01-30T13:39:59.026Z,96002.81
2023-01-30T13:45:03.179Z,95954.03
2023-01-30T13:50:37.051Z,95947.50
2023-01-30T13:55:52.378Z,95972.66
2023-01-30T14:00:56.059Z,95963.34
2023-01-30T14:05:59.552Z,95952.84
2023-01-30T14:11:02.433Z,95954.91
2023-01-30T14:16:06.475Z,95926.78
2023-01-30T14:21:25.699Z,95926.97
2023-01-30T14:26:52.736Z,95968.34
2023-01-30T14:31:55.394Z,95908.06
2023-01-30T14:36:57.761Z,95944.47
2023-01-30T14:42:32.693Z,95898.69
2023-01-30T14:47:42.204Z,95910.22
2023-01-30T14:52:50.532Z,95930.88
2023-01-30T14:58:02.847Z,95904.56
2023-01-30T15:03:37.995Z,95893.53
2023-01-30T15:08:44.175Z,95903.59
2023-01-30T15:14:15.146Z,95944.78
2023-01-30T15:19:40.186Z,95925.75
2023-01-30T15:25:02.027Z,95894.94
2023-01-30T15:30:29.389Z,95939.09
2023-01-30T15:35:31.696Z,95935.59
2023-01-30T15:40:34.360Z,95910.38
2023-01-30T15:45:46.460Z,95929.34
2023-01-30T15:50:59.596Z,95872.31
2023-01-30T15:56:04.498Z,95916.94
2023-01-30T16:01:08.042Z,95916.47
2023-01-30T16:06:28.906Z,95867.22
2023-01-30T16:11:42.674Z,95902.09
2023-01-30T16:16:51.108Z,95924.34
2023-01-30T16:21:56.915Z,95887.34
2023-01-30T16:27:02.976Z,95893.84
2023-01-30T16:32:13.683Z,95847.13
2023-01-30T16:37:19.017Z,95894.25
2023-01-30T16:42:29.339Z,95838.63
2023-01-30T16:47:31.856Z,95869.03
2023-01-30T16:52:44.653Z,95861.19
2023-01-30T16:57:58.635Z,95851.59
2023-01-30T17:03:04.731Z,95838.00
2023-01-30T17:08:31.352Z,95846.22
2023-01-30T17:13:33.655Z,95847.47
2023-01-30T17:18:35.907Z,95839.00
2023-01-30T17:23:40.310Z,95855.25
2023-01-30T17:28:43.361Z,95811.53
2023-01-30T17:33:45.818Z,95841.22
2023-01-30T17:38:48.193Z,95839.56
2023-01-30T17:43:50.999Z,95838.19
2023-01-30T17:48:53.241Z,95826.34
2023-01-30T17:53:55.424Z,95816.56
2023-01-30T17:58:57.913Z,95799.03
2023-01-30T18:04:00.141Z,95803.53
2023-01-30T18:09:02.202Z,95774.34
2023-01-30T18:14:06.989Z,95760.19
2023-01-30T18:19:15.529Z,95789.81
2023-01-30T18:24:18.952Z,95791.63
2023-01-30T18:29:20.997Z,95793.25
2023-01-30T18:34:23.058Z,95788.75
2023-01-30T18:39:25.575Z,95784.41
2023-01-30T18:44:27.952Z,95803.44
2023-01-30T18:49:30.823Z,95791.75
2023-01-30T18:54:33.269Z,95787.78
2023-01-30T18:59:35.473Z,95776.31
2023-01-30T19:04:37.922Z,95799.09
2023-01-30T19:09:40.198Z,95784.94
2023-01-30T19:14:42.682Z,95766.59
2023-01-30T19:19:46.161Z,95772.78
2023-01-30T19:24:48.532Z,95771.31
2023-01-30T19:29:50.783Z,95777.81
2023-01-30T19:34:52.939Z,95743.88
2023-01-30T19:39:55.235Z,95755.28
2023-01-30T19:44:57.563Z,95755.59
2023-01-30T19:49:59.961Z,95737.03
2023-01-30T19:55:02.087Z,95749.88
2023-01-30T20:00:05.623Z,95766.34
2023-01-30T20:05:09.033Z,95744.69
2023-01-30T20:10:11.203Z,95756.03
2023-01-30T20:15:13.337Z,95735.88
2023-01-30T20:20:15.548Z,95745.31
2023-01-30T20:25:17.887Z,95752.97
2023-01-30T20:30:20.648Z,95748.88
2023-01-30T20:35:23.047Z,95728.31
2023-01-30T20:40:25.426Z,95724.03
2023-01-30T20:45:27.967Z,95718.03
2023-01-30T20:50:30.418Z,95704.50
2023-01-30T20:55:34.392Z,95700.38
2023-01-30T21:00:37.057Z,95703.16
2023-01-30T21:05:39.495Z,95698.06
2023-01-30T21:10:46.906Z,95709.31
2023-01-30T21:15:49.197Z,95718.75
2023-01-30T21:20:51.609Z,95708.69
2023-01-30T21:25:54.135Z,95706.97
2023-01-30T21:30:56.546Z,95707.88
2023-01-30T21:36:00.522Z,95713.81
2023-01-30T21:41:23.907Z,95684.16
2023-01-30T21:46:26.337Z,95711.06
2023-01-30T21:51:30.171Z,95698.38
2023-01-30T21:56:33.457Z,95711.16
2023-01-30T22:01:37.659Z,95697.56
2023-01-30T22:06:40.907Z,95710.31
2023-01-30T22:11:43.598Z,95717.00
2023-01-30T22:16:45.853Z,95694.81
2023-01-30T22:21:48.074Z,95714.25
2023-01-30T22:26:50.763Z,95710.03
2023-01-30T22:31:52.912Z,95711.06
2023-01-30T22:36:55.662Z,95718.75
2023-01-30T22:42:03.619Z,95716.28
2023-01-30T22:47:05.773Z,95714.13
2023-01-30T22:52:07.916Z,95704.00
2023-01-30T22:57:13.403Z,95700.31
2023-01-30T23:02:15.683Z,95702.03
2023-01-30T23:07:18.409Z,95689.00
2023-01-30T23:12:39.235Z,95679.81
2023-01-30T23:17:59.928Z,95701.06
2023-01-30T23:23:06.274Z,95685.03
2023-01-30T23:28:15.095Z,95659.41
2023-01-30T23:33:17.509Z,95634.94
2023-01-30T23:38:20.289Z,95639.66
2023-01-30T23:43:22.304Z,95646.19
2023-01-30T23:48:24.402Z,95641.16
2023-01-30T23:53:26.639Z,95657.41
2023-01-30T23:58:29.223Z,95660.66
